createdAt,value
2018-02-04T00:01:06.912Z,11.90
2018-02-04T00:03:59.956Z,12.50
2018-02-04T00:06:29.847Z,12.60
2018-02-04T00:08:58.148Z,12.83
2018-02-04T00:11:26.433Z,13.03
2018-02-04T00:13:56.986Z,13.83
2018-02-04T00:16:25.873Z,14.17
2018-02-04T00:18:55.582Z,14.80
2018-02-04T00:21:24.632Z,14.13
2018-02-04T00:23:54.311Z,14.30
2018-02-04T00:26:23.099Z,13.87
2018-02-04T00:28:52.081Z,13.83
2018-02-04T00:31:20.398Z,14.17
2018-02-04T00:33:55.051Z,14.23
2018-02-04T00:36:23.344Z,14.87
2018-02-04T00:38:52.442Z,14.97
2018-02-04T00:41:23.307Z,14.70
2018-02-04T00:43:52.318Z,14.70
2018-02-04T00:46:22.247Z,14.50
2018-02-04T00:51:54.296Z,14.07
2018-02-04T00:54:23.329Z,14.07
2018-02-04T00:56:51.649Z,14.80
2018-02-04T00:59:21.095Z,13.87
2018-02-04T01:01:49.957Z,14.13
2018-02-04T01:04:30.945Z,14.30
2018-02-04T01:07:06.429Z,14.07
2018-02-04T01:09:39.652Z,14.20
2018-02-04T01:12:12.386Z,14.50
2018-02-04T01:14:41.051Z,14.30
2018-02-04T01:17:09.563Z,14.33
2018-02-04T01:19:38.973Z,14.17
2018-02-04T01:22:07.736Z,14.43
2018-02-04T01:24:37.310Z,13.67
2018-02-04T01:27:08.359Z,13.80
2018-02-04T01:29:37.499Z,13.73
2018-02-04T01:32:07.699Z,15.80
2018-02-04T01:34:37.679Z,14.37
2018-02-04T01:37:08.129Z,14.60
2018-02-04T01:39:43.053Z,15.53
2018-02-04T01:42:11.369Z,14.23
2018-02-04T01:44:42.249Z,14.90
2018-02-04T01:47:11.204Z,14.13
2018-02-04T01:49:41.380Z,14.97
2018-02-04T01:52:10.951Z,15.13
2018-02-04T01:54:39.362Z,15.70
2018-02-04T01:57:08.366Z,13.80
2018-02-04T01:59:42.155Z,13.90
2018-02-04T02:02:12.461Z,13.77
2018-02-04T02:04:41.722Z,13.40
2018-02-04T02:07:10.027Z,13.90
2018-02-04T02:09:38.952Z,12.83
2018-02-04T02:12:08.001Z,12.87
2018-02-04T02:14:36.811Z,12.37
2018-02-04T02:17:05.937Z,13.50
2018-02-04T02:19:35.601Z,12.60
2018-02-04T02:22:25.595Z,12.17
2018-02-04T02:24:53.976Z,12.60
2018-02-04T02:27:24.206Z,10.90
2018-02-04T02:29:59.000Z,11.37
2018-02-04T02:32:34.663Z,10.77
2018-02-04T02:35:07.768Z,10.67
2018-02-04T02:37:42.847Z,10.47
2018-02-04T02:40:13.205Z,10.63
2018-02-04T02:42:42.614Z,10.17
2018-02-04T02:45:10.926Z,9.83
2018-02-04T02:47:40.105Z,9.83
2018-02-04T02:50:09.496Z,9.70
2018-02-04T02:52:41.074Z,8.47
2018-02-04T02:55:13.577Z,8.40
2018-02-04T02:57:42.095Z,7.83
2018-02-04T03:00:10.389Z,7.63
2018-02-04T03:02:43.664Z,7.20
2018-02-04T03:05:14.018Z,6.93
2018-02-04T03:07:43.976Z,7.97
2018-02-04T03:10:15.336Z,7.93
2018-02-04T03:12:48.790Z,7.13
2018-02-04T03:15:22.206Z,7.07
2018-02-04T03:17:54.940Z,6.37
2018-02-04T03:20:25.374Z,6.70
2018-02-04T03:22:54.600Z,6.60
2018-02-04T03:25:23.947Z,7.40
2018-02-04T03:27:52.241Z,6.67
2018-02-04T03:30:22.449Z,6.47
2018-02-04T03:32:55.701Z,6.17
2018-02-04T03:35:25.609Z,6.57
2018-02-04T03:37:54.757Z,7.03
2018-02-04T03:40:26.334Z,6.83
2018-02-04T03:42:55.388Z,6.60
2018-02-04T03:45:23.730Z,6.17
2018-02-04T03:47:55.700Z,6.00
2018-02-04T03:50:26.857Z,6.30
2018-02-04T03:53:00.050Z,4.90
2018-02-04T03:55:30.229Z,5.60
2018-02-04T03:57:59.212Z,6.20
2018-02-04T04:00:29.039Z,5.60
2018-02-04T04:02:57.400Z,5.10
2018-02-04T04:05:28.397Z,5.00
2018-02-04T04:08:20.172Z,4.97
2018-02-04T04:10:51.817Z,4.97
2018-02-04T04:13:20.782Z,5.53
2018-02-04T04:15:51.420Z,5.33
2018-02-04T04:18:20.216Z,5.67
2018-02-04T04:20:56.137Z,5.47
2018-02-04T04:23:26.354Z,5.13
2018-02-04T04:25:56.867Z,4.60
2018-02-04T04:28:25.313Z,4.83
2018-02-04T04:30:54.900Z,4.97
2018-02-04T04:33:23.961Z,4.00
2018-02-04T04:35:54.092Z,4.90
2018-02-04T04:38:44.744Z,4.97
2018-02-04T04:41:13.362Z,4.43
2018-02-04T04:43:44.781Z,4.20
2018-02-04T04:46:14.050Z,3.93
2018-02-04T04:48:48.316Z,4.23
2018-02-04T04:51:20.952Z,3.53
2018-02-04T04:53:50.966Z,3.77
2018-02-04T04:56:26.565Z,4.07
2018-02-04T04:58:55.412Z,3.60
2018-02-04T05:01:23.689Z,3.40
2018-02-04T05:03:52.713Z,2.73
2018-02-04T05:06:21.286Z,3.10
2018-02-04T05:08:52.530Z,3.30
2018-02-04T05:11:29.001Z,3.33
2018-02-04T05:14:02.057Z,4.20
2018-02-04T05:16:30.607Z,3.33
2018-02-04T05:18:59.295Z,3.07
2018-02-04T05:21:29.564Z,3.67
2018-02-04T05:23:57.868Z,3.27
2018-02-04T05:26:28.938Z,3.40
2018-02-04T05:28:57.545Z,3.40
2018-02-04T05:31:26.534Z,3.60
2018-02-04T05:33:55.660Z,3.17
2018-02-04T05:36:23.977Z,3.23
2018-02-04T05:38:54.387Z,3.40
2018-02-04T05:41:24.754Z,3.10
2018-02-04T05:43:53.225Z,3.13
2018-02-04T05:46:27.439Z,3.13
2018-02-04T05:49:01.930Z,3.00
2018-02-04T05:51:31.865Z,3.30
2018-02-04T05:54:00.921Z,2.83
2018-02-04T05:56:29.217Z,3.10
2018-02-04T05:58:57.671Z,2.70
2018-02-04T06:01:26.646Z,2.90
2018-02-04T06:03:54.924Z,2.93
2018-02-04T06:06:30.426Z,2.90
2018-02-04T06:09:04.832Z,2.90
2018-02-04T06:11:40.262Z,2.83
2018-02-04T06:14:10.294Z,2.73
2018-02-04T06:16:46.368Z,2.73
2018-02-04T06:19:16.515Z,2.30
2018-02-04T06:21:47.993Z,2.90
2018-02-04T06:24:59.686Z,2.43
2018-02-04T06:27:29.620Z,2.80
2018-02-04T06:29:58.243Z,2.40
2018-02-04T06:32:28.083Z,2.60
2018-02-04T06:34:58.807Z,2.30
2018-02-04T06:37:27.480Z,2.60
2018-02-04T06:39:56.505Z,2.60
2018-02-04T06:42:26.930Z,2.80
2018-02-04T06:44:58.404Z,2.40
2018-02-04T06:47:33.760Z,2.90
2018-02-04T06:50:08.032Z,2.70
2018-02-04T06:52:39.082Z,2.53
2018-02-04T06:55:15.351Z,2.93
2018-02-04T06:57:53.134Z,3.20
2018-02-04T07:00:27.466Z,3.20
2018-02-04T07:03:00.323Z,3.03
2018-02-04T07:05:33.690Z,2.80
2018-02-04T07:08:09.575Z,3.03
2018-02-04T07:11:18.215Z,2.93
2018-02-04T07:13:46.957Z,2.80
2018-02-04T07:16:20.388Z,3.00
2018-02-04T07:18:55.592Z,3.03
2018-02-04T07:21:28.932Z,2.97
2018-02-04T07:24:12.625Z,2.73
2018-02-04T07:26:40.913Z,3.67
2018-02-04T07:29:12.954Z,2.93
2018-02-04T07:31:46.683Z,3.13
2018-02-04T07:34:15.770Z,2.43
2018-02-04T07:36:44.068Z,2.80
2018-02-04T07:39:12.359Z,2.70
2018-02-04T07:41:41.109Z,2.67
2018-02-04T07:44:10.539Z,2.70
2018-02-04T07:46:40.782Z,2.70
2018-02-04T07:49:12.484Z,2.20
2018-02-04T07:51:42.225Z,2.87
2018-02-04T07:54:11.575Z,2.93
2018-02-04T07:56:41.054Z,2.90
2018-02-04T07:59:09.735Z,2.60
2018-02-04T08:01:38.769Z,2.80
2018-02-04T08:04:09.109Z,2.93
2018-02-04T08:06:43.390Z,2.73
2018-02-04T08:09:15.787Z,3.00
2018-02-04T08:11:46.859Z,2.53
2018-02-04T08:14:16.891Z,3.47
2018-02-04T08:16:46.532Z,2.87
2018-02-04T08:19:15.089Z,3.13
2018-02-04T08:21:45.623Z,2.83
2018-02-04T08:24:14.712Z,2.80
2018-02-04T08:26:43.976Z,3.30
2018-02-04T08:29:15.358Z,2.50
2018-02-04T08:31:49.617Z,2.73
2018-02-04T08:34:26.162Z,3.20
2018-02-04T08:37:03.072Z,4.10
2018-02-04T08:39:31.487Z,2.80
2018-02-04T08:42:05.246Z,3.00
2018-02-04T08:44:42.164Z,2.93
2018-02-04T08:47:17.281Z,3.00
2018-02-04T08:49:52.190Z,4.30
2018-02-04T08:52:26.846Z,2.40
2018-02-04T08:54:55.156Z,3.07
2018-02-04T08:57:24.367Z,2.80
2018-02-04T08:59:52.660Z,3.10
2018-02-04T09:02:21.650Z,2.80
2018-02-04T09:04:50.936Z,3.10
2018-02-04T09:07:22.721Z,2.87
2018-02-04T09:09:56.510Z,2.93
2018-02-04T09:12:38.968Z,3.13
2018-02-04T09:15:07.812Z,2.67
2018-02-04T09:17:38.379Z,2.83
2018-02-04T09:20:06.895Z,3.03
2018-02-04T09:22:37.359Z,2.57
2018-02-04T09:25:05.887Z,2.70
2018-02-04T09:27:34.414Z,2.90
2018-02-04T09:30:03.326Z,3.00
2018-02-04T09:32:34.389Z,2.67
2018-02-04T09:35:03.999Z,2.87
2018-02-04T09:37:32.271Z,3.17
2018-02-04T09:40:00.760Z,2.70
2018-02-04T09:42:29.058Z,3.27
2018-02-04T09:44:57.336Z,2.90
2018-02-04T09:47:26.518Z,3.20
2018-02-04T09:50:00.850Z,2.87
2018-02-04T09:52:35.777Z,3.20
2018-02-04T09:55:07.522Z,3.23
2018-02-04T09:57:36.839Z,3.53
2018-02-04T10:00:05.132Z,3.27
2018-02-04T10:02:33.400Z,2.80
2018-02-04T10:05:01.698Z,3.43
2018-02-04T10:07:30.226Z,3.57
2018-02-04T10:10:00.718Z,3.53
2018-02-04T10:12:51.906Z,3.20
2018-02-04T10:15:22.737Z,3.63
2018-02-04T10:17:52.145Z,3.07
2018-02-04T10:20:20.469Z,3.17
2018-02-04T10:22:50.951Z,3.63
2018-02-04T10:25:20.840Z,3.17
2018-02-04T10:27:49.694Z,2.70
2018-02-04T10:30:18.776Z,3.13
2018-02-04T10:32:47.075Z,2.67
2018-02-04T10:35:15.406Z,3.40
2018-02-04T10:37:45.308Z,3.37
2018-02-04T10:40:21.000Z,2.70
2018-02-04T10:43:12.015Z,2.50
2018-02-04T10:45:41.201Z,2.90
2018-02-04T10:48:10.696Z,2.60
2018-02-04T10:50:47.960Z,2.37
2018-02-04T10:53:16.420Z,2.97
2018-02-04T10:55:47.487Z,2.73
2018-02-04T10:58:16.428Z,2.97
2018-02-04T11:00:50.465Z,2.13
2018-02-04T11:03:20.560Z,2.37
2018-02-04T11:05:53.563Z,2.30
2018-02-04T11:08:25.742Z,2.30
2018-02-04T11:10:55.298Z,2.27
2018-02-04T11:13:24.921Z,2.50
2018-02-04T11:15:53.717Z,2.47
2018-02-04T11:18:21.998Z,2.73
2018-02-04T11:20:50.315Z,3.83
2018-02-04T11:23:21.677Z,4.07
2018-02-04T11:25:53.198Z,4.53
2018-02-04T11:28:35.042Z,2.60
2018-02-04T11:31:15.109Z,3.00
2018-02-04T11:33:43.468Z,5.20
2018-02-04T11:36:12.072Z,2.73
2018-02-04T11:38:46.261Z,2.80
2018-02-04T11:41:18.987Z,2.47
2018-02-04T11:43:50.504Z,2.73
2018-02-04T11:46:26.414Z,2.57
2018-02-04T11:49:02.476Z,2.50
2018-02-04T11:51:31.420Z,2.97
2018-02-04T11:54:00.840Z,2.47
2018-02-04T11:56:29.148Z,2.47
2018-02-04T11:58:57.763Z,2.70
2018-02-04T12:01:26.472Z,2.37
2018-02-04T12:03:58.553Z,3.60
2018-02-04T12:06:32.042Z,2.40
2018-02-04T12:09:02.087Z,2.40
2018-02-04T12:11:30.665Z,3.20
2018-02-04T12:13:59.562Z,2.87
2018-02-04T12:16:28.540Z,3.40
2018-02-04T12:18:57.304Z,2.80
2018-02-04T12:21:26.882Z,3.67
2018-02-04T12:23:55.430Z,2.50
2018-02-04T12:26:26.114Z,2.50
2018-02-04T12:28:55.155Z,2.07
2018-02-04T12:31:23.420Z,2.47
2018-02-04T12:33:52.503Z,2.30
2018-02-04T12:36:25.294Z,2.67
2018-02-04T12:38:57.637Z,2.50
2018-02-04T12:41:33.292Z,2.30
2018-02-04T12:44:02.434Z,3.63
2018-02-04T12:46:32.537Z,2.73
2018-02-04T12:49:00.943Z,3.60
2018-02-04T12:51:29.403Z,2.83
2018-02-04T12:53:57.983Z,2.40
2018-02-04T12:56:29.970Z,3.00
2018-02-04T12:59:01.158Z,2.60
2018-02-04T13:01:33.663Z,3.00
2018-02-04T13:04:09.976Z,2.47
2018-02-04T13:06:41.055Z,2.70
2018-02-04T13:09:13.106Z,3.33
2018-02-04T13:11:42.541Z,2.90
2018-02-04T13:14:11.065Z,4.57
2018-02-04T13:16:40.252Z,4.00
2018-02-04T13:19:08.927Z,3.07
2018-02-04T13:21:37.752Z,3.63
2018-02-04T13:24:10.904Z,3.23
2018-02-04T13:26:39.878Z,3.30
2018-02-04T13:29:08.393Z,3.90
2018-02-04T13:31:36.678Z,3.70
2018-02-04T13:34:06.086Z,5.80
2018-02-04T13:36:35.279Z,2.93
2018-02-04T13:39:05.046Z,3.60
2018-02-04T13:41:37.471Z,3.30
2018-02-04T13:44:11.261Z,3.77
2018-02-04T13:46:41.654Z,3.20
2018-02-04T13:49:10.880Z,3.07
2018-02-04T13:51:39.171Z,3.27
2018-02-04T13:54:08.208Z,3.07
2018-02-04T13:56:36.517Z,3.30
2018-02-04T13:59:05.174Z,3.30
2018-02-04T14:01:38.203Z,3.73
2018-02-04T14:04:10.192Z,3.47
2018-02-04T14:06:40.262Z,3.33
2018-02-04T14:09:09.735Z,3.43
2018-02-04T14:11:39.262Z,3.73
2018-02-04T14:14:07.558Z,3.50
2018-02-04T14:16:35.840Z,3.60
2018-02-04T14:19:04.320Z,4.00
2018-02-04T14:21:32.612Z,4.87
2018-02-04T14:24:03.469Z,3.90
2018-02-04T14:26:31.751Z,3.70
2018-02-04T14:29:00.460Z,3.37
2018-02-04T14:31:57.456Z,3.67
2018-02-04T14:34:30.630Z,3.90
2018-02-04T14:37:03.031Z,3.90
2018-02-04T14:39:31.843Z,3.83
2018-02-04T14:42:02.097Z,3.50
2018-02-04T14:44:30.358Z,3.90
2018-02-04T14:47:21.584Z,4.10
2018-02-04T14:49:55.273Z,4.10
2018-02-04T14:52:24.531Z,5.70
2018-02-04T14:55:03.104Z,3.03
2018-02-04T14:57:33.766Z,3.03
2018-02-04T15:00:06.096Z,3.53
2018-02-04T15:02:36.429Z,3.83
2018-02-04T15:05:06.224Z,4.60
2018-02-04T15:07:34.804Z,3.60
2018-02-04T15:10:04.960Z,3.57
2018-02-04T15:12:33.237Z,3.30
2018-02-04T15:15:02.848Z,4.00
2018-02-04T15:18:09.050Z,3.80
2018-02-04T15:20:41.168Z,3.63
2018-02-04T15:23:10.765Z,3.87
2018-02-04T15:25:39.692Z,3.77
2018-02-04T15:28:08.791Z,8.23
2018-02-04T15:30:37.320Z,4.70
2018-02-04T15:33:06.506Z,6.63
2018-02-04T15:35:37.705Z,4.70
2018-02-04T15:38:09.815Z,3.93
2018-02-04T15:40:44.854Z,9.73
2018-02-04T15:43:20.567Z,3.30
2018-02-04T15:45:52.648Z,4.17
2018-02-04T15:48:26.586Z,7.33
2018-02-04T15:50:56.145Z,4.90
2018-02-04T15:53:24.426Z,3.77
2018-02-04T15:55:53.671Z,3.60
2018-02-04T15:58:22.605Z,4.23
2018-02-04T16:00:51.546Z,4.40
2018-02-04T16:03:21.604Z,3.77
2018-02-04T16:05:54.430Z,8.90
2018-02-04T16:08:27.930Z,10.83
2018-02-04T16:11:04.073Z,9.00
2018-02-04T16:13:37.819Z,4.77
2018-02-04T16:16:10.269Z,4.40
2018-02-04T16:18:42.919Z,6.37
2018-02-04T16:21:14.055Z,4.70
2018-02-04T16:23:42.613Z,4.33
2018-02-04T16:26:11.252Z,6.97
2018-02-04T16:28:40.305Z,9.03
2018-02-04T16:31:09.150Z,6.40
2018-02-04T16:34:00.404Z,7.33
2018-02-04T16:36:29.287Z,5.80
2018-02-04T16:38:57.669Z,6.80
2018-02-04T16:41:26.445Z,6.60
2018-02-04T16:43:57.870Z,5.33
2018-02-04T16:46:29.273Z,5.50
2018-02-04T16:48:58.836Z,5.27
2018-02-04T16:51:28.680Z,5.70
2018-02-04T16:53:57.006Z,5.10
2018-02-04T16:56:31.408Z,5.03
2018-02-04T16:59:00.139Z,5.87
2018-02-04T17:01:28.433Z,6.97
2018-02-04T17:04:03.504Z,5.77
2018-02-04T17:06:35.982Z,5.63
2018-02-04T17:09:07.055Z,12.47
2018-02-04T17:11:35.492Z,6.77
2018-02-04T17:14:03.791Z,6.23
2018-02-04T17:16:32.100Z,14.20
2018-02-04T17:19:01.912Z,5.73
2018-02-04T17:21:31.038Z,5.40
2018-02-04T17:24:02.062Z,4.20
2018-02-04T17:26:34.203Z,4.80
2018-02-04T17:29:06.658Z,4.77
2018-02-04T17:31:38.929Z,4.67
2018-02-04T17:34:13.013Z,4.20
2018-02-04T17:36:45.266Z,5.00
2018-02-04T17:39:15.570Z,5.30
2018-02-04T17:41:44.785Z,3.90
2018-02-04T17:44:13.086Z,3.93
2018-02-04T17:46:42.174Z,3.70
2018-02-04T17:49:11.597Z,4.40
2018-02-04T17:51:41.659Z,4.67
2018-02-04T17:54:10.460Z,5.60
2018-02-04T17:56:38.835Z,5.27
2018-02-04T17:59:07.139Z,5.47
2018-02-04T18:01:35.467Z,5.60
2018-02-04T18:04:26.773Z,4.70
2018-02-04T18:06:56.642Z,5.53
2018-02-04T18:09:24.946Z,5.93
2018-02-04T18:11:58.625Z,5.50
2018-02-04T18:14:30.642Z,5.87
2018-02-04T18:16:59.455Z,5.93
2018-02-04T18:19:31.316Z,6.80
2018-02-04T18:22:03.780Z,5.90
2018-02-04T18:24:33.097Z,6.00
2018-02-04T18:27:02.452Z,6.43
2018-02-04T18:29:30.745Z,5.67
2018-02-04T18:31:59.689Z,7.13
2018-02-04T18:34:30.476Z,5.37
2018-02-04T18:36:59.676Z,5.67
2018-02-04T18:39:32.158Z,6.10
2018-02-04T18:42:04.012Z,6.67
2018-02-04T18:44:32.331Z,5.90
2018-02-04T18:47:01.257Z,6.03
2018-02-04T18:49:29.657Z,6.03
2018-02-04T18:51:58.654Z,5.40
2018-02-04T18:54:28.824Z,5.17
2018-02-04T18:57:02.744Z,5.40
2018-02-04T18:59:32.506Z,5.33
2018-02-04T19:02:02.258Z,5.93
2018-02-04T19:05:10.037Z,5.83
2018-02-04T19:07:39.431Z,5.03
2018-02-04T19:10:07.736Z,6.27
2018-02-04T19:12:37.392Z,6.27
2018-02-04T19:15:08.226Z,6.67
2018-02-04T19:17:41.391Z,6.27
2018-02-04T19:20:15.990Z,6.57
2018-02-04T19:22:47.698Z,6.13
2018-02-04T19:25:16.497Z,6.10
2018-02-04T19:27:45.547Z,5.63
2018-02-04T19:30:14.991Z,5.77
2018-02-04T19:32:44.405Z,5.57
2018-02-04T19:35:33.522Z,5.73
2018-02-04T19:38:01.865Z,5.67
2018-02-04T19:40:32.350Z,6.33
2018-02-04T19:43:00.638Z,5.90
2018-02-04T19:45:32.312Z,6.07
2018-02-04T19:48:05.149Z,6.27
2018-02-04T19:50:35.596Z,6.17
2018-02-04T19:53:04.376Z,9.87
2018-02-04T19:55:33.049Z,6.37
2018-02-04T19:58:01.356Z,6.30
2018-02-04T20:00:29.604Z,6.33
2018-02-04T20:02:58.214Z,7.90
2018-02-04T20:05:29.119Z,5.77
2018-02-04T20:07:57.651Z,6.97
2018-02-04T20:10:29.891Z,6.10
2018-02-04T20:12:58.198Z,6.70
2018-02-04T20:15:26.975Z,7.00
2018-02-04T20:17:57.007Z,7.00
2018-02-04T20:20:26.156Z,6.83
2018-02-04T20:23:01.407Z,6.43
2018-02-04T20:25:33.391Z,8.27
2018-02-04T20:28:02.214Z,6.60
2018-02-04T20:30:32.057Z,6.97
2018-02-04T20:33:13.462Z,6.80
2018-02-04T20:35:44.223Z,6.17
2018-02-04T20:38:14.329Z,6.90
2018-02-04T20:40:42.610Z,6.80
2018-02-04T20:43:10.907Z,7.20
2018-02-04T20:45:39.215Z,7.67
2018-02-04T20:48:09.370Z,6.90
2018-02-04T20:51:00.790Z,6.77
2018-02-04T20:53:30.233Z,6.17
2018-02-04T20:55:58.687Z,6.90
2018-02-04T20:58:27.247Z,6.87
2018-02-04T21:00:58.922Z,7.17
2018-02-04T21:03:30.480Z,6.87
2018-02-04T21:06:44.217Z,6.90
2018-02-04T21:09:12.800Z,7.67
2018-02-04T21:11:41.609Z,7.07
2018-02-04T21:14:12.207Z,6.70
2018-02-04T21:16:41.407Z,6.53
2018-02-04T21:19:09.731Z,7.80
2018-02-04T21:22:01.200Z,6.50
2018-02-04T21:24:31.908Z,6.30
2018-02-04T21:27:03.700Z,6.10
2018-02-04T21:29:32.973Z,6.70
2018-02-04T21:32:02.137Z,6.60
2018-02-04T21:34:31.363Z,6.67
2018-02-04T21:37:01.955Z,6.83
2018-02-04T21:39:31.645Z,6.43
2018-02-04T21:42:05.616Z,6.43
2018-02-04T21:44:34.557Z,6.63
2018-02-04T21:47:02.873Z,6.80
2018-02-04T21:49:33.072Z,6.73
2018-02-04T21:52:23.600Z,5.77
2018-02-04T21:54:56.259Z,6.93
2018-02-04T21:57:29.424Z,7.00
2018-02-04T22:00:03.463Z,6.37
2018-02-04T22:02:38.455Z,6.47
2018-02-04T22:05:12.316Z,5.80
2018-02-04T22:07:47.002Z,6.20
2018-02-04T22:10:20.916Z,6.40
2018-02-04T22:12:55.664Z,7.40
2018-02-04T22:15:25.379Z,6.70
2018-02-04T22:17:57.190Z,7.30
2018-02-04T22:20:25.503Z,7.10
2018-02-04T22:22:54.502Z,6.70
2018-02-04T22:25:22.768Z,6.83
2018-02-04T22:27:51.175Z,6.17
2018-02-04T22:30:20.621Z,5.93
2018-02-04T22:32:49.561Z,5.93
2018-02-04T22:35:18.266Z,5.60
2018-02-04T22:37:48.499Z,5.40
2018-02-04T22:40:17.226Z,6.70
2018-02-04T22:42:45.658Z,7.03
2018-02-04T22:45:13.965Z,6.43
2018-02-04T22:47:43.047Z,6.20
2018-02-04T22:50:11.389Z,5.20
2018-02-04T22:53:21.619Z,5.20
2018-02-04T22:55:50.627Z,5.70
2018-02-04T22:58:19.694Z,5.43
2018-02-04T23:00:47.991Z,5.20
2018-02-04T23:03:19.469Z,5.47
2018-02-04T23:05:50.445Z,5.70
2018-02-04T23:08:23.427Z,5.40
2018-02-04T23:10:51.965Z,5.17
2018-02-04T23:13:20.263Z,5.90
2018-02-04T23:15:48.532Z,5.60
2018-02-04T23:18:18.585Z,5.57
2018-02-04T23:20:52.467Z,5.63
2018-02-04T23:23:25.536Z,5.30
2018-02-04T23:25:54.660Z,5.57
2018-02-04T23:28:24.490Z,5.53
2018-02-04T23:30:52.977Z,4.80
2018-02-04T23:33:26.695Z,6.87
2018-02-04T23:35:56.030Z,5.60
2018-02-04T23:38:24.736Z,4.97
2018-02-04T23:40:54.385Z,4.90
2018-02-04T23:43:23.834Z,5.33
2018-02-04T23:45:53.674Z,5.13
2018-02-04T23:48:24.058Z,4.60
2018-02-04T23:50:52.343Z,5.13
2018-02-04T23:53:21.254Z,5.23
2018-02-04T23:55:51.339Z,4.17
2018-02-04T23:58:19.953Z,4.83
